createdAt,value
2024-05-09T00:05:11.439Z,60.34
2024-05-09T00:10:39.393Z,60.06
2024-05-09T00:16:04.301Z,60.48
2024-05-09T00:21:17.506Z,60.73
2024-05-09T00:26:43.548Z,60.30
2024-05-09T00:32:13.002Z,61.03
2024-05-09T00:38:05.721Z,60.05
2024-05-09T00:49:05.187Z,60.76
2024-05-09T00:54:26.008Z,61.39
2024-05-09T00:59:57.108Z,61.19
2024-05-09T01:05:20.601Z,62.30
2024-05-09T01:10:33.582Z,62.48
2024-05-09T01:15:38.381Z,62.48
2024-05-09T01:21:09.265Z,62.99
2024-05-09T01:26:41.978Z,62.82
2024-05-09T01:32:17.186Z,62.25
2024-05-09T01:38:12.225Z,62.28
2024-05-09T01:44:00.651Z,61.95
2024-05-09T02:00:55.818Z,64.05
2024-05-09T02:06:16.430Z,63.47
2024-05-09T02:17:44.455Z,64.42
2024-05-09T02:23:09.748Z,66.12
2024-05-09T02:28:33.850Z,65.16
2024-05-09T02:34:17.520Z,65.72
2024-05-09T04:47:36.750Z,60.91
2024-05-09T04:52:39.715Z,58.69
2024-05-09T04:57:42.596Z,58.86
2024-05-09T05:02:45.645Z,59.78
2024-05-09T05:07:48.705Z,59.41
2024-05-09T05:13:10.617Z,58.67
2024-05-09T05:18:15.122Z,57.52
2024-05-09T05:23:19.884Z,58.13
2024-05-09T05:28:23.329Z,58.12
2024-05-09T05:33:26.753Z,57.71
2024-05-09T05:38:30.204Z,57.39
2024-05-09T05:43:34.399Z,57.69
2024-05-09T05:48:37.493Z,57.43
2024-05-09T05:53:40.559Z,56.47
2024-05-09T05:58:43.580Z,56.17
2024-05-09T06:03:47.090Z,55.75
2024-05-09T06:08:50.824Z,55.20
2024-05-09T06:13:53.998Z,54.76
2024-05-09T06:18:57.679Z,55.32
2024-05-09T06:24:03.804Z,54.45
2024-05-09T06:29:08.492Z,53.94
2024-05-09T06:34:12.575Z,54.44
2024-05-09T06:39:15.795Z,52.11
2024-05-09T06:44:18.973Z,51.62
2024-05-09T06:49:22.363Z,51.46
2024-05-09T06:54:25.376Z,50.84
2024-05-09T06:59:34.450Z,50.58
2024-05-09T07:04:37.880Z,50.04
2024-05-09T07:09:41.147Z,50.54
2024-05-09T07:14:44.167Z,49.24
2024-05-09T07:19:47.145Z,49.66
2024-05-09T07:24:53.855Z,49.65
2024-05-09T07:29:57.980Z,48.35
2024-05-09T07:35:01.276Z,48.33
2024-05-09T07:40:07.470Z,47.58
2024-05-09T07:45:29.670Z,46.94
2024-05-09T07:55:45.509Z,46.14
2024-05-09T08:00:48.753Z,46.16
2024-05-09T08:05:51.974Z,45.00
2024-05-09T08:10:55.302Z,45.19
2024-05-09T08:15:58.444Z,44.17
2024-05-09T08:21:01.513Z,43.83
2024-05-09T08:26:04.551Z,43.40
2024-05-09T08:31:07.852Z,42.25
2024-05-09T08:36:11.143Z,42.95
2024-05-09T08:41:15.609Z,43.28
2024-05-09T08:46:19.195Z,43.37
2024-05-09T08:51:22.519Z,41.95
2024-05-09T08:56:28.411Z,42.81
2024-05-09T09:01:33.779Z,42.81
2024-05-09T09:06:37.726Z,42.94
2024-05-09T09:11:40.861Z,42.24
2024-05-09T09:16:45.989Z,41.61
2024-05-09T09:21:49.042Z,41.53
2024-05-09T09:26:52.032Z,41.15
2024-05-09T09:32:03.930Z,40.96
2024-05-09T09:37:08.789Z,40.73
2024-05-09T09:42:16.800Z,40.07
2024-05-09T09:47:20.779Z,40.11
2024-05-09T09:52:25.843Z,40.94
2024-05-09T09:57:29.940Z,40.73
2024-05-09T10:02:33.086Z,40.32
2024-05-09T10:07:40.637Z,41.02
2024-05-09T10:13:12.504Z,40.43
2024-05-09T10:18:15.905Z,40.58
2024-05-09T10:23:30.056Z,39.90
2024-05-09T10:28:33.667Z,40.41
2024-05-09T10:33:45.523Z,40.46
2024-05-09T10:38:49.779Z,40.22
2024-05-09T10:43:52.719Z,39.75
2024-05-09T10:48:58.617Z,39.92
2024-05-09T10:54:02.392Z,39.96
2024-05-09T10:59:05.962Z,39.13
2024-05-09T11:04:09.336Z,39.68
2024-05-09T11:09:12.567Z,39.82
2024-05-09T11:14:16.414Z,39.61
2024-05-09T11:19:19.825Z,39.15
2024-05-09T11:24:23.373Z,38.64
2024-05-09T11:29:40.771Z,39.17
2024-05-09T11:34:43.928Z,39.09
2024-05-09T11:39:47.329Z,38.94
2024-05-09T11:44:51.247Z,38.72
2024-05-09T11:49:57.396Z,38.93
2024-05-09T11:55:01.166Z,39.01
2024-05-09T12:00:07.378Z,39.26
2024-05-09T12:05:13.029Z,39.23
2024-05-09T12:10:19.838Z,39.31
2024-05-09T12:15:25.771Z,38.89
2024-05-09T12:20:35.806Z,39.16
2024-05-09T12:25:41.702Z,39.15
2024-05-09T12:30:44.867Z,39.16
2024-05-09T12:35:50.717Z,39.00
2024-05-09T12:40:54.493Z,38.93
2024-05-09T12:45:58.102Z,38.71
2024-05-09T12:51:01.318Z,38.69
2024-05-09T12:56:06.077Z,38.73
2024-05-09T13:01:10.842Z,38.83
2024-05-09T13:06:13.950Z,38.67
2024-05-09T13:11:17.575Z,38.74
2024-05-09T13:16:21.002Z,38.61
2024-05-09T13:21:24.354Z,38.25
2024-05-09T13:26:27.398Z,38.30
2024-05-09T13:31:30.591Z,38.40
2024-05-09T13:36:34.561Z,38.45
2024-05-09T13:41:37.628Z,38.58
2024-05-09T13:46:40.814Z,38.11
2024-05-09T13:51:43.703Z,38.02
2024-05-09T13:56:46.696Z,37.98
2024-05-09T14:01:49.918Z,37.82
2024-05-09T14:06:53.275Z,37.70
2024-05-09T14:11:56.357Z,37.45
2024-05-09T14:17:00.059Z,37.96
2024-05-09T14:22:06.233Z,38.09
2024-05-09T14:27:09.435Z,38.04
2024-05-09T14:32:12.483Z,37.27
2024-05-09T14:37:15.654Z,37.67
2024-05-09T14:42:20.046Z,37.63
2024-05-09T14:47:23.107Z,37.15
2024-05-09T14:52:26.147Z,37.22
2024-05-09T14:57:29.281Z,37.27
2024-05-09T15:02:33.946Z,37.34
2024-05-09T15:07:38.450Z,37.65
2024-05-09T15:12:41.615Z,37.75
2024-05-09T15:17:45.178Z,37.62
2024-05-09T15:22:48.281Z,37.54
2024-05-09T15:27:51.468Z,37.74
2024-05-09T15:32:54.494Z,37.49
2024-05-09T15:37:57.680Z,37.46
2024-05-09T15:43:00.815Z,37.74
2024-05-09T15:48:05.942Z,37.79
2024-05-09T15:53:10.957Z,37.97
2024-05-09T15:58:15.378Z,37.97
2024-05-09T16:03:21.359Z,38.03
2024-05-09T16:08:25.291Z,38.10
2024-05-09T16:13:32.103Z,38.23
2024-05-09T16:18:36.006Z,38.56
2024-05-09T16:23:40.879Z,38.65
2024-05-09T16:28:43.852Z,37.95
2024-05-09T16:33:47.346Z,37.92
2024-05-09T16:38:50.480Z,37.32
2024-05-09T16:43:54.115Z,37.89
2024-05-09T16:48:57.447Z,37.21
2024-05-09T16:54:00.854Z,36.66
2024-05-09T16:59:04.206Z,36.84
2024-05-09T17:04:07.425Z,36.48
2024-05-09T17:09:12.038Z,35.96
2024-05-09T17:14:20.316Z,36.14
2024-05-09T17:19:23.443Z,36.20
2024-05-09T17:24:26.987Z,35.08
2024-05-09T17:29:30.698Z,35.42
2024-05-09T17:34:34.119Z,35.86
2024-05-09T17:39:37.662Z,35.65
2024-05-09T17:44:43.450Z,35.78
2024-05-09T17:49:46.515Z,35.80
2024-05-09T17:54:51.347Z,35.90
2024-05-09T17:59:55.666Z,36.25
2024-05-09T18:04:58.817Z,36.64
2024-05-09T18:10:03.190Z,36.89
2024-05-09T18:15:07.063Z,37.26
2024-05-09T18:20:14.159Z,37.49
2024-05-09T18:25:22.873Z,37.85
2024-05-09T18:30:32.258Z,37.99
2024-05-09T18:35:38.303Z,38.43
2024-05-09T18:40:43.770Z,38.51
2024-05-09T18:45:49.450Z,38.62
2024-05-09T18:50:52.731Z,38.89
2024-05-09T18:55:56.051Z,39.21
2024-05-09T19:01:01.609Z,39.39
2024-05-09T19:06:05.466Z,39.79
2024-05-09T19:11:08.840Z,40.00
2024-05-09T19:16:12.200Z,40.25
2024-05-09T19:21:15.529Z,40.53
2024-05-09T19:26:18.607Z,40.71
2024-05-09T19:31:22.703Z,41.21
2024-05-09T19:36:25.850Z,41.43
2024-05-09T19:41:29.011Z,41.63
2024-05-09T19:46:32.193Z,42.46
2024-05-09T19:51:35.259Z,42.89
2024-05-09T19:56:44.537Z,43.17
2024-05-09T20:01:48.597Z,43.51
2024-05-09T20:06:53.219Z,44.01
2024-05-09T20:11:56.404Z,44.45
2024-05-09T20:16:59.634Z,44.79
2024-05-09T20:22:02.883Z,45.22
2024-05-09T20:27:05.993Z,46.30
2024-05-09T20:32:09.097Z,45.71
2024-05-09T20:37:12.210Z,45.74
2024-05-09T20:42:15.333Z,46.28
2024-05-09T20:47:18.898Z,46.84
2024-05-09T20:52:21.890Z,47.01
2024-05-09T20:57:24.847Z,46.97
2024-05-09T21:02:28.157Z,47.20
2024-05-09T21:07:31.503Z,47.60
2024-05-09T21:12:34.614Z,47.54
2024-05-09T21:17:37.895Z,47.61
2024-05-09T21:22:41.149Z,47.88
2024-05-09T21:27:44.417Z,48.08
2024-05-09T21:32:48.071Z,48.60
2024-05-09T21:37:51.197Z,49.48
2024-05-09T21:42:54.241Z,49.31
2024-05-09T21:47:57.412Z,49.36
2024-05-09T21:53:00.612Z,50.37
2024-05-09T21:58:04.163Z,50.63
2024-05-09T22:03:08.565Z,51.08
2024-05-09T22:08:12.945Z,51.21
2024-05-09T22:13:18.601Z,51.64
2024-05-09T22:18:21.992Z,52.77
2024-05-09T22:23:24.889Z,52.56
2024-05-09T22:28:27.957Z,53.40
2024-05-09T22:33:31.425Z,53.15
2024-05-09T22:38:34.718Z,53.60
2024-05-09T22:43:37.925Z,53.77
2024-05-09T22:48:41.192Z,54.60
2024-05-09T22:53:44.556Z,53.95
2024-05-09T22:58:47.714Z,54.59
2024-05-09T23:03:51.101Z,54.78
2024-05-09T23:08:54.214Z,54.61
2024-05-09T23:13:57.388Z,54.94
2024-05-09T23:19:00.585Z,55.64
2024-05-09T23:24:03.906Z,54.64
2024-05-09T23:29:07.025Z,55.47
2024-05-09T23:34:10.251Z,55.48
2024-05-09T23:39:13.422Z,56.82
2024-05-09T23:44:16.650Z,57.35
2024-05-09T23:49:19.791Z,57.44
2024-05-09T23:54:23.064Z,56.96
2024-05-09T23:59:26.479Z,56.59
